sensor_id;sensor_type;location;lat;lon;timestamp;P1;durP1;ratioP1;P2;durP2;ratioP2
61840;SDS011;47773;53.174;6.614;2022-12-10T00:01:27;49.80;;;20.65;;
61840;SDS011;47773;53.174;6.614;2022-12-10T00:03:54;48.85;;;20.73;;
61840;SDS011;47773;53.174;6.614;2022-12-10T00:06:21;47.65;;;19.80;;
61840;SDS011;47773;53.174;6.614;2022-12-10T00:08:49;48.35;;;19.88;;
61840;SDS011;47773;53.174;6.614;2022-12-10T00:11:16;50.70;;;20.48;;
61840;SDS011;47773;53.174;6.614;2022-12-10T00:13:43;50.47;;;20.48;;
61840;SDS011;47773;53.174;6.614;2022-12-10T00:16:10;45.50;;;19.60;;
61840;SDS011;47773;53.174;6.614;2022-12-10T00:18:37;51.55;;;20.52;;
61840;SDS011;47773;53.174;6.614;2022-12-10T00:21:04;50.35;;;21.10;;
61840;SDS011;47773;53.174;6.614;2022-12-10T00:23:31;49.08;;;20.83;;
61840;SDS011;47773;53.174;6.614;2022-12-10T00:26:04;42.90;;;20.05;;
61840;SDS011;47773;53.174;6.614;2022-12-10T00:28:31;52.15;;;19.75;;
61840;SDS011;47773;53.174;6.614;2022-12-10T00:31:11;53.08;;;21.42;;
61840;SDS011;47773;53.174;6.614;2022-12-10T00:33:38;51.65;;;20.58;;
61840;SDS011;47773;53.174;6.614;2022-12-10T00:36:08;52.63;;;20.38;;
61840;SDS011;47773;53.174;6.614;2022-12-10T00:38:36;62.00;;;21.38;;
61840;SDS011;47773;53.174;6.614;2022-12-10T00:41:03;55.63;;;20.92;;
61840;SDS011;47773;53.174;6.614;2022-12-10T00:43:29;50.65;;;21.33;;
61840;SDS011;47773;53.174;6.614;2022-12-10T00:45:55;51.13;;;21.70;;
61840;SDS011;47773;53.174;6.614;2022-12-10T00:48:22;51.38;;;21.85;;
61840;SDS011;47773;53.174;6.614;2022-12-10T00:50:58;53.53;;;21.60;;
61840;SDS011;47773;53.174;6.614;2022-12-10T00:53:26;51.75;;;21.67;;
61840;SDS011;47773;53.174;6.614;2022-12-10T00:55:52;57.58;;;21.83;;
61840;SDS011;47773;53.174;6.614;2022-12-10T00:58:18;56.22;;;22.63;;
61840;SDS011;47773;53.174;6.614;2022-12-10T01:00:44;55.00;;;22.38;;
61840;SDS011;47773;53.174;6.614;2022-12-10T01:03:10;53.90;;;21.83;;
61840;SDS011;47773;53.174;6.614;2022-12-10T01:05:35;58.13;;;22.17;;
61840;SDS011;47773;53.174;6.614;2022-12-10T01:08:01;52.17;;;22.17;;
61840;SDS011;47773;53.174;6.614;2022-12-10T01:10:26;48.17;;;20.38;;
61840;SDS011;47773;53.174;6.614;2022-12-10T01:12:52;57.85;;;22.08;;
61840;SDS011;47773;53.174;6.614;2022-12-10T01:15:18;54.78;;;22.65;;
61840;SDS011;47773;53.174;6.614;2022-12-10T01:17:43;56.95;;;22.20;;
61840;SDS011;47773;53.174;6.614;2022-12-10T01:20:09;51.90;;;22.83;;
61840;SDS011;47773;53.174;6.614;2022-12-10T01:22:35;53.58;;;22.75;;
61840;SDS011;47773;53.174;6.614;2022-12-10T01:25:01;56.00;;;21.27;;
61840;SDS011;47773;53.174;6.614;2022-12-10T01:27:26;60.08;;;23.08;;
61840;SDS011;47773;53.174;6.614;2022-12-10T01:29:52;54.58;;;21.88;;
61840;SDS011;47773;53.174;6.614;2022-12-10T01:32:18;57.95;;;22.75;;
61840;SDS011;47773;53.174;6.614;2022-12-10T01:34:43;56.83;;;22.60;;
61840;SDS011;47773;53.174;6.614;2022-12-10T01:37:09;55.45;;;22.98;;
61840;SDS011;47773;53.174;6.614;2022-12-10T01:39:35;57.28;;;21.65;;
61840;SDS011;47773;53.174;6.614;2022-12-10T01:42:01;54.33;;;23.15;;
61840;SDS011;47773;53.174;6.614;2022-12-10T01:46:54;58.15;;;22.50;;
61840;SDS011;47773;53.174;6.614;2022-12-10T01:49:22;52.22;;;20.85;;
61840;SDS011;47773;53.174;6.614;2022-12-10T01:51:56;56.03;;;22.45;;
61840;SDS011;47773;53.174;6.614;2022-12-10T01:54:26;55.50;;;22.63;;
61840;SDS011;47773;53.174;6.614;2022-12-10T01:59:36;54.20;;;20.67;;
61840;SDS011;47773;53.174;6.614;2022-12-10T02:07:48;60.05;;;22.85;;
61840;SDS011;47773;53.174;6.614;2022-12-10T02:10:32;55.92;;;22.02;;
61840;SDS011;47773;53.174;6.614;2022-12-10T02:13:25;63.45;;;22.88;;
61840;SDS011;47773;53.174;6.614;2022-12-10T02:18:23;55.47;;;21.95;;
61840;SDS011;47773;53.174;6.614;2022-12-10T02:20:53;59.95;;;23.25;;
61840;SDS011;47773;53.174;6.614;2022-12-10T02:23:31;58.83;;;24.20;;
61840;SDS011;47773;53.174;6.614;2022-12-10T02:26:03;60.85;;;23.20;;
61840;SDS011;47773;53.174;6.614;2022-12-10T02:31:29;54.35;;;23.90;;
61840;SDS011;47773;53.174;6.614;2022-12-10T02:33:58;54.92;;;22.58;;
61840;SDS011;47773;53.174;6.614;2022-12-10T02:36:29;57.70;;;22.98;;
61840;SDS011;47773;53.174;6.614;2022-12-10T02:38:59;66.80;;;25.53;;
61840;SDS011;47773;53.174;6.614;2022-12-10T02:41:30;61.97;;;23.80;;
61840;SDS011;47773;53.174;6.614;2022-12-10T02:44:03;62.17;;;24.08;;
61840;SDS011;47773;53.174;6.614;2022-12-10T02:46:32;61.42;;;22.90;;
61840;SDS011;47773;53.174;6.614;2022-12-10T02:49:00;57.08;;;24.85;;
61840;SDS011;47773;53.174;6.614;2022-12-10T02:51:28;62.50;;;23.83;;
61840;SDS011;47773;53.174;6.614;2022-12-10T02:54:01;62.30;;;24.48;;
61840;SDS011;47773;53.174;6.614;2022-12-10T02:56:33;62.05;;;24.05;;
61840;SDS011;47773;53.174;6.614;2022-12-10T03:01:48;58.85;;;23.38;;
61840;SDS011;47773;53.174;6.614;2022-12-10T03:04:24;59.35;;;24.48;;
61840;SDS011;47773;53.174;6.614;2022-12-10T03:06:58;61.05;;;23.20;;
61840;SDS011;47773;53.174;6.614;2022-12-10T03:09:33;63.65;;;25.50;;
61840;SDS011;47773;53.174;6.614;2022-12-10T03:15:11;65.30;;;24.58;;
61840;SDS011;47773;53.174;6.614;2022-12-10T03:17:38;62.53;;;25.08;;
61840;SDS011;47773;53.174;6.614;2022-12-10T03:20:08;61.92;;;23.58;;
61840;SDS011;47773;53.174;6.614;2022-12-10T03:22:38;60.22;;;23.77;;
61840;SDS011;47773;53.174;6.614;2022-12-10T03:25:06;61.55;;;24.70;;
61840;SDS011;47773;53.174;6.614;2022-12-10T03:27:33;60.53;;;24.13;;
61840;SDS011;47773;53.174;6.614;2022-12-10T03:30:01;56.17;;;24.50;;
61840;SDS011;47773;53.174;6.614;2022-12-10T03:32:28;65.95;;;25.38;;
61840;SDS011;47773;53.174;6.614;2022-12-10T03:34:55;65.47;;;24.60;;
61840;SDS011;47773;53.174;6.614;2022-12-10T03:37:23;61.83;;;25.23;;
61840;SDS011;47773;53.174;6.614;2022-12-10T03:39:51;70.88;;;25.13;;
61840;SDS011;47773;53.174;6.614;2022-12-10T03:42:18;56.42;;;24.35;;
61840;SDS011;47773;53.174;6.614;2022-12-10T03:44:43;66.40;;;24.20;;
61840;SDS011;47773;53.174;6.614;2022-12-10T03:47:10;66.88;;;24.92;;
61840;SDS011;47773;53.174;6.614;2022-12-10T03:49:39;59.20;;;23.23;;
61840;SDS011;47773;53.174;6.614;2022-12-10T03:52:06;64.78;;;25.17;;
61840;SDS011;47773;53.174;6.614;2022-12-10T03:54:31;63.70;;;25.90;;
61840;SDS011;47773;53.174;6.614;2022-12-10T03:56:57;69.10;;;26.13;;
61840;SDS011;47773;53.174;6.614;2022-12-10T03:59:23;64.60;;;24.55;;
61840;SDS011;47773;53.174;6.614;2022-12-10T04:01:48;63.40;;;23.80;;
61840;SDS011;47773;53.174;6.614;2022-12-10T04:04:14;60.15;;;25.08;;
61840;SDS011;47773;53.174;6.614;2022-12-10T04:06:41;60.97;;;24.80;;
61840;SDS011;47773;53.174;6.614;2022-12-10T04:09:09;65.78;;;26.20;;
61840;SDS011;47773;53.174;6.614;2022-12-10T04:11:36;64.38;;;25.27;;
61840;SDS011;47773;53.174;6.614;2022-12-10T04:14:01;59.92;;;23.83;;
61840;SDS011;47773;53.174;6.614;2022-12-10T04:16:46;64.32;;;25.77;;
61840;SDS011;47773;53.174;6.614;2022-12-10T04:19:12;58.75;;;24.70;;
61840;SDS011;47773;53.174;6.614;2022-12-10T04:21:39;61.53;;;25.60;;
61840;SDS011;47773;53.174;6.614;2022-12-10T04:24:26;59.67;;;24.80;;
61840;SDS011;47773;53.174;6.614;2022-12-10T04:27:13;57.25;;;23.42;;
61840;SDS011;47773;53.174;6.614;2022-12-10T04:29:52;58.10;;;24.30;;
61840;SDS011;47773;53.174;6.614;2022-12-10T04:32:19;61.88;;;24.92;;
61840;SDS011;47773;53.174;6.614;2022-12-10T04:34:45;63.20;;;24.52;;
61840;SDS011;47773;53.174;6.614;2022-12-10T04:37:11;61.95;;;25.42;;
61840;SDS011;47773;53.174;6.614;2022-12-10T04:39:37;65.85;;;24.83;;
61840;SDS011;47773;53.174;6.614;2022-12-10T04:42:04;63.10;;;24.60;;
61840;SDS011;47773;53.174;6.614;2022-12-10T04:44:30;60.17;;;24.25;;
61840;SDS011;47773;53.174;6.614;2022-12-10T04:46:55;58.40;;;24.17;;
61840;SDS011;47773;53.174;6.614;2022-12-10T04:49:21;60.00;;;23.42;;
61840;SDS011;47773;53.174;6.614;2022-12-10T04:51:47;57.33;;;24.52;;
61840;SDS011;47773;53.174;6.614;2022-12-10T04:54:14;58.05;;;23.65;;
61840;SDS011;47773;53.174;6.614;2022-12-10T04:56:39;64.97;;;24.23;;
61840;SDS011;47773;53.174;6.614;2022-12-10T04:59:06;64.85;;;25.38;;
61840;SDS011;47773;53.174;6.614;2022-12-10T05:01:32;61.17;;;24.98;;
61840;SDS011;47773;53.174;6.614;2022-12-10T05:03:58;62.50;;;23.75;;
61840;SDS011;47773;53.174;6.614;2022-12-10T05:06:29;57.58;;;24.00;;
61840;SDS011;47773;53.174;6.614;2022-12-10T05:08:55;63.53;;;25.45;;
61840;SDS011;47773;53.174;6.614;2022-12-10T05:11:22;58.28;;;23.90;;
61840;SDS011;47773;53.174;6.614;2022-12-10T05:13:49;63.85;;;25.05;;
61840;SDS011;47773;53.174;6.614;2022-12-10T05:16:15;67.35;;;24.67;;
61840;SDS011;47773;53.174;6.614;2022-12-10T05:18:43;77.50;;;26.35;;
61840;SDS011;47773;53.174;6.614;2022-12-10T05:21:13;65.80;;;23.98;;
61840;SDS011;47773;53.174;6.614;2022-12-10T05:23:42;62.45;;;24.30;;
61840;SDS011;47773;53.174;6.614;2022-12-10T05:26:19;65.25;;;25.33;;
61840;SDS011;47773;53.174;6.614;2022-12-10T05:28:47;60.67;;;24.15;;
61840;SDS011;47773;53.174;6.614;2022-12-10T05:31:32;65.15;;;25.30;;
61840;SDS011;47773;53.174;6.614;2022-12-10T05:33:58;64.05;;;24.40;;
61840;SDS011;47773;53.174;6.614;2022-12-10T05:36:25;67.82;;;25.23;;
61840;SDS011;47773;53.174;6.614;2022-12-10T05:38:53;63.53;;;25.10;;
61840;SDS011;47773;53.174;6.614;2022-12-10T05:41:20;67.43;;;25.98;;
61840;SDS011;47773;53.174;6.614;2022-12-10T05:43:53;68.37;;;24.60;;
61840;SDS011;47773;53.174;6.614;2022-12-10T05:46:20;69.78;;;26.42;;
61840;SDS011;47773;53.174;6.614;2022-12-10T05:48:49;64.88;;;23.90;;
61840;SDS011;47773;53.174;6.614;2022-12-10T05:51:16;74.72;;;25.98;;
61840;SDS011;47773;53.174;6.614;2022-12-10T05:53:43;72.03;;;27.20;;
61840;SDS011;47773;53.174;6.614;2022-12-10T05:56:13;71.15;;;26.77;;
61840;SDS011;47773;53.174;6.614;2022-12-10T05:58:41;76.55;;;24.80;;
61840;SDS011;47773;53.174;6.614;2022-12-10T06:01:11;69.07;;;25.67;;
61840;SDS011;47773;53.174;6.614;2022-12-10T06:03:39;74.13;;;27.48;;
61840;SDS011;47773;53.174;6.614;2022-12-10T06:06:05;75.15;;;27.13;;
61840;SDS011;47773;53.174;6.614;2022-12-10T06:08:32;72.93;;;26.65;;
61840;SDS011;47773;53.174;6.614;2022-12-10T06:11:03;76.57;;;26.05;;
61840;SDS011;47773;53.174;6.614;2022-12-10T06:13:33;71.30;;;25.42;;
61840;SDS011;47773;53.174;6.614;2022-12-10T06:15:58;76.75;;;27.98;;
61840;SDS011;47773;53.174;6.614;2022-12-10T06:18:24;74.18;;;26.13;;
61840;SDS011;47773;53.174;6.614;2022-12-10T06:20:50;71.88;;;26.42;;
61840;SDS011;47773;53.174;6.614;2022-12-10T06:23:15;66.25;;;26.17;;
61840;SDS011;47773;53.174;6.614;2022-12-10T06:25:41;74.88;;;26.65;;
61840;SDS011;47773;53.174;6.614;2022-12-10T06:28:07;75.00;;;27.35;;
61840;SDS011;47773;53.174;6.614;2022-12-10T06:30:33;68.05;;;26.88;;
61840;SDS011;47773;53.174;6.614;2022-12-10T06:32:59;67.07;;;25.48;;
61840;SDS011;47773;53.174;6.614;2022-12-10T06:35:25;70.28;;;25.80;;
61840;SDS011;47773;53.174;6.614;2022-12-10T06:37:51;69.88;;;26.83;;
61840;SDS011;47773;53.174;6.614;2022-12-10T06:40:17;70.45;;;27.17;;
61840;SDS011;47773;53.174;6.614;2022-12-10T06:42:43;73.22;;;28.23;;
61840;SDS011;47773;53.174;6.614;2022-12-10T06:45:08;78.75;;;26.42;;
61840;SDS011;47773;53.174;6.614;2022-12-10T06:47:34;64.43;;;24.92;;
61840;SDS011;47773;53.174;6.614;2022-12-10T06:50:00;71.38;;;25.48;;
61840;SDS011;47773;53.174;6.614;2022-12-10T06:52:26;70.93;;;25.30;;
61840;SDS011;47773;53.174;6.614;2022-12-10T06:54:51;77.80;;;25.20;;
61840;SDS011;47773;53.174;6.614;2022-12-10T06:57:19;73.18;;;26.52;;
61840;SDS011;47773;53.174;6.614;2022-12-10T06:59:45;73.57;;;25.40;;
61840;SDS011;47773;53.174;6.614;2022-12-10T07:02:10;70.72;;;24.23;;
61840;SDS011;47773;53.174;6.614;2022-12-10T07:04:36;69.80;;;25.45;;
61840;SDS011;47773;53.174;6.614;2022-12-10T07:07:02;74.80;;;25.63;;
61840;SDS011;47773;53.174;6.614;2022-12-10T07:09:28;70.90;;;25.00;;
61840;SDS011;47773;53.174;6.614;2022-12-10T07:11:53;71.72;;;26.70;;
61840;SDS011;47773;53.174;6.614;2022-12-10T07:14:19;72.57;;;26.48;;
61840;SDS011;47773;53.174;6.614;2022-12-10T07:16:45;75.75;;;27.08;;
61840;SDS011;47773;53.174;6.614;2022-12-10T07:19:11;76.60;;;25.67;;
61840;SDS011;47773;53.174;6.614;2022-12-10T07:21:39;77.68;;;25.48;;
61840;SDS011;47773;53.174;6.614;2022-12-10T07:24:14;74.00;;;27.38;;
61840;SDS011;47773;53.174;6.614;2022-12-10T07:26:42;67.00;;;24.42;;
61840;SDS011;47773;53.174;6.614;2022-12-10T07:29:13;70.70;;;25.70;;
61840;SDS011;47773;53.174;6.614;2022-12-10T07:31:40;75.88;;;24.27;;
61840;SDS011;47773;53.174;6.614;2022-12-10T07:34:06;91.28;;;23.75;;
61840;SDS011;47773;53.174;6.614;2022-12-10T07:36:32;64.05;;;23.25;;
61840;SDS011;47773;53.174;6.614;2022-12-10T07:38:58;62.35;;;24.50;;
61840;SDS011;47773;53.174;6.614;2022-12-10T07:41:24;70.57;;;24.35;;
61840;SDS011;47773;53.174;6.614;2022-12-10T07:43:50;66.15;;;24.85;;
61840;SDS011;47773;53.174;6.614;2022-12-10T07:46:18;65.53;;;24.45;;
61840;SDS011;47773;53.174;6.614;2022-12-10T07:48:46;77.10;;;27.77;;
61840;SDS011;47773;53.174;6.614;2022-12-10T07:51:12;78.30;;;25.88;;
61840;SDS011;47773;53.174;6.614;2022-12-10T07:53:39;77.45;;;25.50;;
61840;SDS011;47773;53.174;6.614;2022-12-10T07:56:04;69.60;;;24.25;;
61840;SDS011;47773;53.174;6.614;2022-12-10T07:58:31;78.78;;;25.92;;
61840;SDS011;47773;53.174;6.614;2022-12-10T08:00:57;81.65;;;27.30;;
61840;SDS011;47773;53.174;6.614;2022-12-10T08:03:22;74.03;;;26.08;;
61840;SDS011;47773;53.174;6.614;2022-12-10T08:05:49;74.22;;;25.65;;
61840;SDS011;47773;53.174;6.614;2022-12-10T08:08:25;65.07;;;24.17;;
61840;SDS011;47773;53.174;6.614;2022-12-10T08:10:50;66.10;;;25.40;;
61840;SDS011;47773;53.174;6.614;2022-12-10T08:13:16;70.82;;;24.63;;
61840;SDS011;47773;53.174;6.614;2022-12-10T08:15:42;66.95;;;24.23;;
61840;SDS011;47773;53.174;6.614;2022-12-10T08:18:07;73.57;;;25.33;;
61840;SDS011;47773;53.174;6.614;2022-12-10T08:20:33;64.43;;;24.67;;
61840;SDS011;47773;53.174;6.614;2022-12-10T08:23:00;83.03;;;24.65;;
61840;SDS011;47773;53.174;6.614;2022-12-10T08:25:25;61.10;;;22.20;;
61840;SDS011;47773;53.174;6.614;2022-12-10T08:27:51;76.30;;;24.02;;
61840;SDS011;47773;53.174;6.614;2022-12-10T08:30:17;73.35;;;24.77;;
61840;SDS011;47773;53.174;6.614;2022-12-10T08:32:42;69.45;;;23.25;;
61840;SDS011;47773;53.174;6.614;2022-12-10T08:35:08;69.50;;;25.00;;
61840;SDS011;47773;53.174;6.614;2022-12-10T08:37:33;74.68;;;24.60;;
61840;SDS011;47773;53.174;6.614;2022-12-10T08:39:59;72.10;;;25.73;;
61840;SDS011;47773;53.174;6.614;2022-12-10T08:42:25;70.75;;;26.02;;
61840;SDS011;47773;53.174;6.614;2022-12-10T08:44:50;77.72;;;26.67;;
61840;SDS011;47773;53.174;6.614;2022-12-10T08:47:16;81.85;;;26.23;;
61840;SDS011;47773;53.174;6.614;2022-12-10T08:49:41;65.75;;;24.48;;
61840;SDS011;47773;53.174;6.614;2022-12-10T08:52:08;61.42;;;20.20;;
61840;SDS011;47773;53.174;6.614;2022-12-10T08:54:34;93.85;;;22.38;;
61840;SDS011;47773;53.174;6.614;2022-12-10T08:56:59;72.82;;;24.27;;
61840;SDS011;47773;53.174;6.614;2022-12-10T08:59:25;73.43;;;21.67;;
61840;SDS011;47773;53.174;6.614;2022-12-10T09:01:51;59.53;;;23.33;;
61840;SDS011;47773;53.174;6.614;2022-12-10T09:04:17;67.15;;;24.23;;
61840;SDS011;47773;53.174;6.614;2022-12-10T09:06:43;75.72;;;25.50;;
61840;SDS011;47773;53.174;6.614;2022-12-10T09:09:08;73.75;;;24.33;;
61840;SDS011;47773;53.174;6.614;2022-12-10T09:11:34;65.25;;;25.60;;
61840;SDS011;47773;53.174;6.614;2022-12-10T09:14:00;62.08;;;22.58;;
61840;SDS011;47773;53.174;6.614;2022-12-10T09:16:30;73.05;;;22.95;;
61840;SDS011;47773;53.174;6.614;2022-12-10T09:18:58;65.35;;;24.67;;
61840;SDS011;47773;53.174;6.614;2022-12-10T09:21:24;75.88;;;26.60;;
61840;SDS011;47773;53.174;6.614;2022-12-10T09:23:50;79.93;;;27.05;;
61840;SDS011;47773;53.174;6.614;2022-12-10T09:26:19;67.32;;;25.05;;
61840;SDS011;47773;53.174;6.614;2022-12-10T09:28:46;66.55;;;24.35;;
61840;SDS011;47773;53.174;6.614;2022-12-10T09:31:12;66.20;;;24.60;;
61840;SDS011;47773;53.174;6.614;2022-12-10T09:33:41;67.05;;;25.48;;
61840;SDS011;47773;53.174;6.614;2022-12-10T09:36:08;72.15;;;26.70;;
61840;SDS011;47773;53.174;6.614;2022-12-10T09:38:36;70.53;;;26.95;;
61840;SDS011;47773;53.174;6.614;2022-12-10T09:48:33;77.78;;;27.02;;
61840;SDS011;47773;53.174;6.614;2022-12-10T09:51:23;81.28;;;26.98;;
61840;SDS011;47773;53.174;6.614;2022-12-10T09:53:52;82.75;;;26.77;;
61840;SDS011;47773;53.174;6.614;2022-12-10T09:56:26;74.00;;;27.15;;
61840;SDS011;47773;53.174;6.614;2022-12-10T09:58:56;90.90;;;26.17;;
61840;SDS011;47773;53.174;6.614;2022-12-10T10:01:24;74.97;;;25.77;;
61840;SDS011;47773;53.174;6.614;2022-12-10T10:03:52;73.10;;;26.20;;
61840;SDS011;47773;53.174;6.614;2022-12-10T10:06:18;68.88;;;25.52;;
61840;SDS011;47773;53.174;6.614;2022-12-10T10:08:50;73.35;;;25.25;;
61840;SDS011;47773;53.174;6.614;2022-12-10T10:11:20;79.72;;;27.27;;
61840;SDS011;47773;53.174;6.614;2022-12-10T10:13:58;72.78;;;26.17;;
61840;SDS011;47773;53.174;6.614;2022-12-10T10:16:59;76.13;;;25.15;;
61840;SDS011;47773;53.174;6.614;2022-12-10T10:19:30;73.72;;;25.40;;
61840;SDS011;47773;53.174;6.614;2022-12-10T10:22:02;72.05;;;25.90;;
61840;SDS011;47773;53.174;6.614;2022-12-10T10:24:36;82.10;;;28.00;;
61840;SDS011;47773;53.174;6.614;2022-12-10T10:27:15;73.68;;;24.80;;
61840;SDS011;47773;53.174;6.614;2022-12-10T10:29:46;78.38;;;26.75;;
61840;SDS011;47773;53.174;6.614;2022-12-10T10:32:22;92.25;;;29.73;;
61840;SDS011;47773;53.174;6.614;2022-12-10T10:34:54;84.35;;;27.13;;
61840;SDS011;47773;53.174;6.614;2022-12-10T10:37:40;80.03;;;27.63;;
61840;SDS011;47773;53.174;6.614;2022-12-10T10:43:21;80.93;;;27.35;;
61840;SDS011;47773;53.174;6.614;2022-12-10T10:45:54;73.68;;;25.30;;
61840;SDS011;47773;53.174;6.614;2022-12-10T10:48:27;73.15;;;26.77;;
61840;SDS011;47773;53.174;6.614;2022-12-10T10:50:55;86.55;;;31.08;;
61840;SDS011;47773;53.174;6.614;2022-12-10T10:56:10;80.45;;;26.77;;
61840;SDS011;47773;53.174;6.614;2022-12-10T10:59:00;83.30;;;26.35;;
61840;SDS011;47773;53.174;6.614;2022-12-10T11:04:18;75.95;;;26.05;;
61840;SDS011;47773;53.174;6.614;2022-12-10T11:06:50;77.70;;;25.35;;
61840;SDS011;47773;53.174;6.614;2022-12-10T11:09:24;77.68;;;27.27;;
61840;SDS011;47773;53.174;6.614;2022-12-10T11:11:58;81.80;;;28.52;;
61840;SDS011;47773;53.174;6.614;2022-12-10T11:14:30;75.80;;;27.15;;
61840;SDS011;47773;53.174;6.614;2022-12-10T11:16:59;86.10;;;27.73;;
61840;SDS011;47773;53.174;6.614;2022-12-10T11:19:35;86.18;;;27.88;;
61840;SDS011;47773;53.174;6.614;2022-12-10T11:22:17;83.65;;;29.90;;
61840;SDS011;47773;53.174;6.614;2022-12-10T11:24:53;82.50;;;29.20;;
61840;SDS011;47773;53.174;6.614;2022-12-10T11:30:15;75.35;;;26.05;;
61840;SDS011;47773;53.174;6.614;2022-12-10T11:38:22;67.28;;;22.77;;
61840;SDS011;47773;53.174;6.614;2022-12-10T11:56:32;68.13;;;22.63;;
61840;SDS011;47773;53.174;6.614;2022-12-10T11:59:17;67.07;;;23.83;;
61840;SDS011;47773;53.174;6.614;2022-12-10T12:01:59;66.22;;;23.20;;
61840;SDS011;47773;53.174;6.614;2022-12-10T12:04:44;64.63;;;23.17;;
61840;SDS011;47773;53.174;6.614;2022-12-10T12:07:35;63.03;;;22.55;;
61840;SDS011;47773;53.174;6.614;2022-12-10T12:12:54;70.90;;;23.05;;
61840;SDS011;47773;53.174;6.614;2022-12-10T12:15:25;59.95;;;22.70;;
61840;SDS011;47773;53.174;6.614;2022-12-10T12:18:04;60.10;;;22.88;;
61840;SDS011;47773;53.174;6.614;2022-12-10T12:20:40;58.22;;;22.45;;
61840;SDS011;47773;53.174;6.614;2022-12-10T12:25:53;63.38;;;23.95;;
61840;SDS011;47773;53.174;6.614;2022-12-10T12:28:28;56.10;;;23.85;;
61840;SDS011;47773;53.174;6.614;2022-12-10T12:33:41;58.42;;;24.20;;
61840;SDS011;47773;53.174;6.614;2022-12-10T12:36:22;58.80;;;21.70;;
61840;SDS011;47773;53.174;6.614;2022-12-10T12:38:55;58.75;;;21.92;;
61840;SDS011;47773;53.174;6.614;2022-12-10T12:44:19;56.08;;;20.60;;
61840;SDS011;47773;53.174;6.614;2022-12-10T12:47:05;60.10;;;21.40;;
61840;SDS011;47773;53.174;6.614;2022-12-10T12:49:39;57.80;;;20.30;;
61840;SDS011;47773;53.174;6.614;2022-12-10T12:52:23;59.03;;;20.90;;
61840;SDS011;47773;53.174;6.614;2022-12-10T12:54:52;58.70;;;21.85;;
61840;SDS011;47773;53.174;6.614;2022-12-10T12:57:28;58.33;;;21.02;;
61840;SDS011;47773;53.174;6.614;2022-12-10T13:05:17;67.22;;;27.02;;
61840;SDS011;47773;53.174;6.614;2022-12-10T13:10:44;74.45;;;26.90;;
61840;SDS011;47773;53.174;6.614;2022-12-10T13:13:33;68.38;;;25.80;;
61840;SDS011;47773;53.174;6.614;2022-12-10T13:19:15;67.60;;;23.27;;
61840;SDS011;47773;53.174;6.614;2022-12-10T13:32:15;62.17;;;23.53;;
61840;SDS011;47773;53.174;6.614;2022-12-10T13:34:43;72.70;;;24.42;;
61840;SDS011;47773;53.174;6.614;2022-12-10T13:42:31;61.58;;;24.25;;
61840;SDS011;47773;53.174;6.614;2022-12-10T13:47:45;71.43;;;23.02;;
61840;SDS011;47773;53.174;6.614;2022-12-10T13:50:19;72.07;;;23.65;;
61840;SDS011;47773;53.174;6.614;2022-12-10T13:52:59;71.03;;;24.30;;
61840;SDS011;47773;53.174;6.614;2022-12-10T13:58:38;74.95;;;24.25;;
61840;SDS011;47773;53.174;6.614;2022-12-10T14:06:53;75.07;;;22.90;;
61840;SDS011;47773;53.174;6.614;2022-12-10T14:09:42;70.50;;;23.13;;
61840;SDS011;47773;53.174;6.614;2022-12-10T14:12:17;80.93;;;25.00;;
61840;SDS011;47773;53.174;6.614;2022-12-10T14:14:52;78.88;;;24.20;;
61840;SDS011;47773;53.174;6.614;2022-12-10T14:17:24;69.40;;;23.58;;
61840;SDS011;47773;53.174;6.614;2022-12-10T14:20:04;64.57;;;21.33;;
61840;SDS011;47773;53.174;6.614;2022-12-10T14:22:33;51.95;;;19.02;;
61840;SDS011;47773;53.174;6.614;2022-12-10T14:25:04;66.55;;;24.83;;
61840;SDS011;47773;53.174;6.614;2022-12-10T14:27:32;59.33;;;21.27;;
61840;SDS011;47773;53.174;6.614;2022-12-10T14:30:04;62.90;;;23.00;;
61840;SDS011;47773;53.174;6.614;2022-12-10T14:32:43;67.75;;;21.85;;
61840;SDS011;47773;53.174;6.614;2022-12-10T14:35:17;64.55;;;21.73;;
61840;SDS011;47773;53.174;6.614;2022-12-10T14:37:46;57.85;;;20.17;;
61840;SDS011;47773;53.174;6.614;2022-12-10T14:40:17;66.32;;;21.73;;
61840;SDS011;47773;53.174;6.614;2022-12-10T14:42:46;62.67;;;22.80;;
61840;SDS011;47773;53.174;6.614;2022-12-10T14:45:13;69.03;;;23.73;;
61840;SDS011;47773;53.174;6.614;2022-12-10T14:47:41;71.03;;;25.02;;
61840;SDS011;47773;53.174;6.614;2022-12-10T14:50:13;71.05;;;24.42;;
61840;SDS011;47773;53.174;6.614;2022-12-10T14:52:42;74.47;;;25.13;;
61840;SDS011;47773;53.174;6.614;2022-12-10T14:55:13;80.70;;;25.30;;
61840;SDS011;47773;53.174;6.614;2022-12-10T14:57:51;78.35;;;26.73;;
61840;SDS011;47773;53.174;6.614;2022-12-10T15:00:24;83.05;;;25.70;;
61840;SDS011;47773;53.174;6.614;2022-12-10T15:02:52;67.32;;;23.52;;
61840;SDS011;47773;53.174;6.614;2022-12-10T15:05:19;77.53;;;24.50;;
61840;SDS011;47773;53.174;6.614;2022-12-10T15:07:54;75.13;;;26.10;;
61840;SDS011;47773;53.174;6.614;2022-12-10T15:10:22;77.03;;;23.15;;
61840;SDS011;47773;53.174;6.614;2022-12-10T15:12:52;75.78;;;24.02;;
61840;SDS011;47773;53.174;6.614;2022-12-10T15:15:21;74.40;;;24.40;;
61840;SDS011;47773;53.174;6.614;2022-12-10T15:17:57;74.90;;;23.80;;
61840;SDS011;47773;53.174;6.614;2022-12-10T15:33:58;69.47;;;22.98;;
61840;SDS011;47773;53.174;6.614;2022-12-10T15:36:36;80.18;;;23.13;;
61840;SDS011;47773;53.174;6.614;2022-12-10T15:41:52;72.82;;;23.10;;
61840;SDS011;47773;53.174;6.614;2022-12-10T15:49:42;76.15;;;23.48;;
61840;SDS011;47773;53.174;6.614;2022-12-10T15:52:15;82.00;;;21.65;;
61840;SDS011;47773;53.174;6.614;2022-12-10T15:54:43;80.78;;;23.55;;
61840;SDS011;47773;53.174;6.614;2022-12-10T15:59:41;72.97;;;23.90;;
61840;SDS011;47773;53.174;6.614;2022-12-10T16:05:14;88.05;;;24.17;;
61840;SDS011;47773;53.174;6.614;2022-12-10T16:07:40;73.63;;;23.92;;
61840;SDS011;47773;53.174;6.614;2022-12-10T16:10:06;76.80;;;24.60;;
61840;SDS011;47773;53.174;6.614;2022-12-10T16:12:34;82.70;;;24.55;;
61840;SDS011;47773;53.174;6.614;2022-12-10T16:15:01;85.38;;;23.88;;
61840;SDS011;47773;53.174;6.614;2022-12-10T16:17:28;79.55;;;24.08;;
61840;SDS011;47773;53.174;6.614;2022-12-10T16:20:09;89.28;;;24.05;;
61840;SDS011;47773;53.174;6.614;2022-12-10T16:22:43;77.20;;;23.48;;
61840;SDS011;47773;53.174;6.614;2022-12-10T16:25:09;75.07;;;23.50;;
61840;SDS011;47773;53.174;6.614;2022-12-10T16:27:34;81.05;;;23.50;;
61840;SDS011;47773;53.174;6.614;2022-12-10T16:30:14;85.20;;;23.60;;
61840;SDS011;47773;53.174;6.614;2022-12-10T16:32:48;81.47;;;22.90;;
61840;SDS011;47773;53.174;6.614;2022-12-10T16:35:14;73.85;;;23.20;;
61840;SDS011;47773;53.174;6.614;2022-12-10T16:37:44;68.72;;;22.02;;
61840;SDS011;47773;53.174;6.614;2022-12-10T16:40:14;74.93;;;23.63;;
61840;SDS011;47773;53.174;6.614;2022-12-10T16:42:41;75.55;;;23.58;;
61840;SDS011;47773;53.174;6.614;2022-12-10T16:45:21;82.30;;;24.60;;
61840;SDS011;47773;53.174;6.614;2022-12-10T16:47:51;72.05;;;23.00;;
61840;SDS011;47773;53.174;6.614;2022-12-10T16:50:17;76.32;;;24.70;;
61840;SDS011;47773;53.174;6.614;2022-12-10T16:52:44;89.82;;;26.15;;
61840;SDS011;47773;53.174;6.614;2022-12-10T16:55:13;82.57;;;22.88;;